sensor_id;sensor_type;location;lat;lon;timestamp;P1;durP1;ratioP1;P2;durP2;ratioP2
22060;SDS011;11194;48.092;-1.382;2023-02-01T00:01:07;18.02;;;10.60;;
22060;SDS011;11194;48.092;-1.382;2023-02-01T00:03:33;18.90;;;8.77;;
22060;SDS011;11194;48.092;-1.382;2023-02-01T00:05:59;17.40;;;8.27;;
22060;SDS011;11194;48.092;-1.382;2023-02-01T00:08:26;20.42;;;8.57;;
22060;SDS011;11194;48.092;-1.382;2023-02-01T00:11:03;17.13;;;7.95;;
22060;SDS011;11194;48.092;-1.382;2023-02-01T00:13:29;16.95;;;8.40;;
22060;SDS011;11194;48.092;-1.382;2023-02-01T00:16:01;18.45;;;7.85;;
22060;SDS011;11194;48.092;-1.382;2023-02-01T00:18:28;14.40;;;8.63;;
22060;SDS011;11194;48.092;-1.382;2023-02-01T00:20:54;16.30;;;8.00;;
22060;SDS011;11194;48.092;-1.382;2023-02-01T00:23:20;15.05;;;7.35;;
22060;SDS011;11194;48.092;-1.382;2023-02-01T00:25:46;12.70;;;7.65;;
22060;SDS011;11194;48.092;-1.382;2023-02-01T00:28:12;16.60;;;7.68;;
22060;SDS011;11194;48.092;-1.382;2023-02-01T00:30:38;13.35;;;6.90;;
22060;SDS011;11194;48.092;-1.382;2023-02-01T00:33:04;16.98;;;6.60;;
22060;SDS011;11194;48.092;-1.382;2023-02-01T00:35:30;15.38;;;6.60;;
22060;SDS011;11194;48.092;-1.382;2023-02-01T00:37:56;11.73;;;4.93;;
22060;SDS011;11194;48.092;-1.382;2023-02-01T00:40:24;12.93;;;5.47;;
22060;SDS011;11194;48.092;-1.382;2023-02-01T00:42:50;14.70;;;5.40;;
22060;SDS011;11194;48.092;-1.382;2023-02-01T00:45:16;16.05;;;5.30;;
22060;SDS011;11194;48.092;-1.382;2023-02-01T00:47:42;11.25;;;5.15;;
22060;SDS011;11194;48.092;-1.382;2023-02-01T00:50:09;17.75;;;4.80;;
22060;SDS011;11194;48.092;-1.382;2023-02-01T00:52:35;17.10;;;4.60;;
22060;SDS011;11194;48.092;-1.382;2023-02-01T00:55:01;15.85;;;5.20;;
22060;SDS011;11194;48.092;-1.382;2023-02-01T00:57:27;13.52;;;5.47;;
22060;SDS011;11194;48.092;-1.382;2023-02-01T00:59:53;9.65;;;4.88;;
22060;SDS011;11194;48.092;-1.382;2023-02-01T01:02:19;12.07;;;5.55;;
22060;SDS011;11194;48.092;-1.382;2023-02-01T01:04:45;13.73;;;5.32;;
22060;SDS011;11194;48.092;-1.382;2023-02-01T01:07:11;12.88;;;5.53;;
22060;SDS011;11194;48.092;-1.382;2023-02-01T01:09:37;14.65;;;5.90;;
22060;SDS011;11194;48.092;-1.382;2023-02-01T01:12:03;15.07;;;6.22;;
22060;SDS011;11194;48.092;-1.382;2023-02-01T01:14:29;12.77;;;5.75;;
22060;SDS011;11194;48.092;-1.382;2023-02-01T01:16:55;12.98;;;5.93;;
22060;SDS011;11194;48.092;-1.382;2023-02-01T01:19:21;12.57;;;6.28;;
22060;SDS011;11194;48.092;-1.382;2023-02-01T01:21:47;15.65;;;5.85;;
22060;SDS011;11194;48.092;-1.382;2023-02-01T01:24:14;15.82;;;6.70;;
22060;SDS011;11194;48.092;-1.382;2023-02-01T01:26:40;13.43;;;6.20;;
22060;SDS011;11194;48.092;-1.382;2023-02-01T01:29:06;9.38;;;5.65;;
22060;SDS011;11194;48.092;-1.382;2023-02-01T01:31:32;15.32;;;5.90;;
22060;SDS011;11194;48.092;-1.382;2023-02-01T01:33:58;12.73;;;5.63;;
22060;SDS011;11194;48.092;-1.382;2023-02-01T01:36:25;13.77;;;5.97;;
22060;SDS011;11194;48.092;-1.382;2023-02-01T01:38:51;14.10;;;5.95;;
22060;SDS011;11194;48.092;-1.382;2023-02-01T01:41:19;10.77;;;5.60;;
22060;SDS011;11194;48.092;-1.382;2023-02-01T01:49:01;13.65;;;5.43;;
22060;SDS011;11194;48.092;-1.382;2023-02-01T01:51:27;13.45;;;4.25;;
22060;SDS011;11194;48.092;-1.382;2023-02-01T01:53:59;12.88;;;5.00;;
22060;SDS011;11194;48.092;-1.382;2023-02-01T01:56:26;15.95;;;5.22;;
22060;SDS011;11194;48.092;-1.382;2023-02-01T01:58:53;13.30;;;4.85;;
22060;SDS011;11194;48.092;-1.382;2023-02-01T02:01:20;12.52;;;4.60;;
22060;SDS011;11194;48.092;-1.382;2023-02-01T02:03:46;12.32;;;4.32;;
22060;SDS011;11194;48.092;-1.382;2023-02-01T02:06:21;13.55;;;5.20;;
22060;SDS011;11194;48.092;-1.382;2023-02-01T02:08:49;15.43;;;6.22;;
22060;SDS011;11194;48.092;-1.382;2023-02-01T02:11:16;16.77;;;5.60;;
22060;SDS011;11194;48.092;-1.382;2023-02-01T02:13:43;12.88;;;5.72;;
22060;SDS011;11194;48.092;-1.382;2023-02-01T02:16:17;11.88;;;5.30;;
22060;SDS011;11194;48.092;-1.382;2023-02-01T02:18:57;13.40;;;5.00;;
22060;SDS011;11194;48.092;-1.382;2023-02-01T05:01:06;18.40;;;4.70;;
22060;SDS011;11194;48.092;-1.382;2023-02-01T05:03:33;13.80;;;4.30;;
22060;SDS011;11194;48.092;-1.382;2023-02-01T05:06:00;16.90;;;4.75;;
22060;SDS011;11194;48.092;-1.382;2023-02-01T05:08:26;12.60;;;4.57;;
22060;SDS011;11194;48.092;-1.382;2023-02-01T05:10:53;12.77;;;4.05;;
22060;SDS011;11194;48.092;-1.382;2023-02-01T05:13:19;8.45;;;4.28;;
22060;SDS011;11194;48.092;-1.382;2023-02-01T05:16:04;16.08;;;5.05;;
22060;SDS011;11194;48.092;-1.382;2023-02-01T05:18:30;18.20;;;4.80;;
22060;SDS011;11194;48.092;-1.382;2023-02-01T05:20:56;10.48;;;4.60;;
22060;SDS011;11194;48.092;-1.382;2023-02-01T05:23:22;16.35;;;4.75;;
22060;SDS011;11194;48.092;-1.382;2023-02-01T05:25:48;16.13;;;4.47;;
22060;SDS011;11194;48.092;-1.382;2023-02-01T05:28:14;13.27;;;5.35;;
22060;SDS011;11194;48.092;-1.382;2023-02-01T05:30:40;11.70;;;4.40;;
22060;SDS011;11194;48.092;-1.382;2023-02-01T05:33:06;18.05;;;5.22;;
22060;SDS011;11194;48.092;-1.382;2023-02-01T05:35:32;11.98;;;5.13;;
22060;SDS011;11194;48.092;-1.382;2023-02-01T05:37:59;10.27;;;5.05;;
22060;SDS011;11194;48.092;-1.382;2023-02-01T05:40:25;11.77;;;5.00;;
22060;SDS011;11194;48.092;-1.382;2023-02-01T05:42:51;9.95;;;4.55;;
22060;SDS011;11194;48.092;-1.382;2023-02-01T05:45:17;16.58;;;5.28;;
22060;SDS011;11194;48.092;-1.382;2023-02-01T05:47:43;13.02;;;5.45;;
22060;SDS011;11194;48.092;-1.382;2023-02-01T05:50:09;15.77;;;5.35;;
22060;SDS011;11194;48.092;-1.382;2023-02-01T05:52:35;12.45;;;5.20;;
22060;SDS011;11194;48.092;-1.382;2023-02-01T05:55:01;15.18;;;4.50;;
22060;SDS011;11194;48.092;-1.382;2023-02-01T05:57:27;13.32;;;4.80;;
22060;SDS011;11194;48.092;-1.382;2023-02-01T05:59:53;12.60;;;4.80;;
22060;SDS011;11194;48.092;-1.382;2023-02-01T06:02:19;7.22;;;4.65;;
22060;SDS011;11194;48.092;-1.382;2023-02-01T06:04:46;14.07;;;5.20;;
22060;SDS011;11194;48.092;-1.382;2023-02-01T06:07:12;17.48;;;4.70;;
22060;SDS011;11194;48.092;-1.382;2023-02-01T06:09:38;12.20;;;4.35;;
22060;SDS011;11194;48.092;-1.382;2023-02-01T06:12:05;17.40;;;5.65;;
22060;SDS011;11194;48.092;-1.382;2023-02-01T06:14:31;14.48;;;4.90;;
22060;SDS011;11194;48.092;-1.382;2023-02-01T06:16:57;13.95;;;4.72;;
22060;SDS011;11194;48.092;-1.382;2023-02-01T06:19:23;13.88;;;4.28;;
22060;SDS011;11194;48.092;-1.382;2023-02-01T06:21:49;12.15;;;4.40;;
22060;SDS011;11194;48.092;-1.382;2023-02-01T06:24:15;16.60;;;5.07;;
22060;SDS011;11194;48.092;-1.382;2023-02-01T06:26:41;14.30;;;4.80;;
22060;SDS011;11194;48.092;-1.382;2023-02-01T06:29:09;17.40;;;5.20;;
22060;SDS011;11194;48.092;-1.382;2023-02-01T06:31:35;14.63;;;4.65;;
22060;SDS011;11194;48.092;-1.382;2023-02-01T06:34:02;13.57;;;4.82;;
22060;SDS011;11194;48.092;-1.382;2023-02-01T06:36:28;15.45;;;3.90;;
22060;SDS011;11194;48.092;-1.382;2023-02-01T06:38:54;21.67;;;5.43;;
22060;SDS011;11194;48.092;-1.382;2023-02-01T06:41:21;17.25;;;5.28;;
22060;SDS011;11194;48.092;-1.382;2023-02-01T06:43:48;16.23;;;4.50;;
22060;SDS011;11194;48.092;-1.382;2023-02-01T06:46:14;15.52;;;4.05;;
22060;SDS011;11194;48.092;-1.382;2023-02-01T06:48:40;19.30;;;4.68;;
22060;SDS011;11194;48.092;-1.382;2023-02-01T06:51:16;16.05;;;4.55;;
22060;SDS011;11194;48.092;-1.382;2023-02-01T06:53:43;11.18;;;4.03;;
22060;SDS011;11194;48.092;-1.382;2023-02-01T06:56:09;15.45;;;4.65;;
22060;SDS011;11194;48.092;-1.382;2023-02-01T06:58:35;13.65;;;4.35;;
22060;SDS011;11194;48.092;-1.382;2023-02-01T07:01:04;9.20;;;4.40;;
22060;SDS011;11194;48.092;-1.382;2023-02-01T07:03:30;9.82;;;4.00;;
22060;SDS011;11194;48.092;-1.382;2023-02-01T07:05:56;15.38;;;4.80;;
22060;SDS011;11194;48.092;-1.382;2023-02-01T07:08:29;15.15;;;4.55;;
22060;SDS011;11194;48.092;-1.382;2023-02-01T07:10:55;15.10;;;5.43;;
22060;SDS011;11194;48.092;-1.382;2023-02-01T07:13:21;10.75;;;4.82;;
22060;SDS011;11194;48.092;-1.382;2023-02-01T07:15:47;17.00;;;4.82;;
22060;SDS011;11194;48.092;-1.382;2023-02-01T07:18:14;12.02;;;4.55;;
22060;SDS011;11194;48.092;-1.382;2023-02-01T07:20:41;10.23;;;4.43;;
22060;SDS011;11194;48.092;-1.382;2023-02-01T07:23:08;19.83;;;4.75;;
22060;SDS011;11194;48.092;-1.382;2023-02-01T07:25:35;15.50;;;4.88;;
22060;SDS011;11194;48.092;-1.382;2023-02-01T07:28:01;14.90;;;4.82;;
22060;SDS011;11194;48.092;-1.382;2023-02-01T07:30:27;15.73;;;4.65;;
22060;SDS011;11194;48.092;-1.382;2023-02-01T07:32:54;14.50;;;4.65;;
22060;SDS011;11194;48.092;-1.382;2023-02-01T07:35:20;13.65;;;4.38;;
22060;SDS011;11194;48.092;-1.382;2023-02-01T07:37:46;14.13;;;4.25;;
22060;SDS011;11194;48.092;-1.382;2023-02-01T07:40:12;16.40;;;5.07;;
22060;SDS011;11194;48.092;-1.382;2023-02-01T07:42:38;15.40;;;5.68;;
22060;SDS011;11194;48.092;-1.382;2023-02-01T07:45:05;20.17;;;5.28;;
22060;SDS011;11194;48.092;-1.382;2023-02-01T07:47:31;14.90;;;5.32;;
22060;SDS011;11194;48.092;-1.382;2023-02-01T07:49:57;12.00;;;5.13;;
22060;SDS011;11194;48.092;-1.382;2023-02-01T07:52:23;34.15;;;13.95;;
22060;SDS011;11194;48.092;-1.382;2023-02-01T07:54:49;43.65;;;23.88;;
22060;SDS011;11194;48.092;-1.382;2023-02-01T07:57:15;46.55;;;20.70;;
22060;SDS011;11194;48.092;-1.382;2023-02-01T07:59:41;32.55;;;11.40;;
22060;SDS011;11194;48.092;-1.382;2023-02-01T08:02:27;26.85;;;9.93;;
22060;SDS011;11194;48.092;-1.382;2023-02-01T08:04:54;20.20;;;10.10;;
22060;SDS011;11194;48.092;-1.382;2023-02-01T08:07:20;14.95;;;7.57;;
22060;SDS011;11194;48.092;-1.382;2023-02-01T08:09:47;20.40;;;6.50;;
22060;SDS011;11194;48.092;-1.382;2023-02-01T08:12:13;22.02;;;6.93;;
22060;SDS011;11194;48.092;-1.382;2023-02-01T08:14:39;17.58;;;7.55;;
22060;SDS011;11194;48.092;-1.382;2023-02-01T08:17:05;19.15;;;6.55;;
22060;SDS011;11194;48.092;-1.382;2023-02-01T08:19:32;28.55;;;13.00;;
22060;SDS011;11194;48.092;-1.382;2023-02-01T08:21:58;28.20;;;12.57;;
22060;SDS011;11194;48.092;-1.382;2023-02-01T08:24:24;19.52;;;9.20;;
22060;SDS011;11194;48.092;-1.382;2023-02-01T08:26:50;27.92;;;9.10;;
22060;SDS011;11194;48.092;-1.382;2023-02-01T08:29:16;23.38;;;9.80;;
22060;SDS011;11194;48.092;-1.382;2023-02-01T08:31:42;25.92;;;11.38;;
22060;SDS011;11194;48.092;-1.382;2023-02-01T08:34:08;24.25;;;11.10;;
22060;SDS011;11194;48.092;-1.382;2023-02-01T08:36:36;16.30;;;7.50;;
22060;SDS011;11194;48.092;-1.382;2023-02-01T08:39:03;17.50;;;6.90;;
22060;SDS011;11194;48.092;-1.382;2023-02-01T08:41:34;16.17;;;5.65;;
22060;SDS011;11194;48.092;-1.382;2023-02-01T08:44:00;13.57;;;5.65;;
22060;SDS011;11194;48.092;-1.382;2023-02-01T08:46:26;15.35;;;5.38;;
22060;SDS011;11194;48.092;-1.382;2023-02-01T08:48:52;12.85;;;5.50;;
22060;SDS011;11194;48.092;-1.382;2023-02-01T08:51:19;19.70;;;5.70;;
22060;SDS011;11194;48.092;-1.382;2023-02-01T08:53:45;14.65;;;5.25;;
22060;SDS011;11194;48.092;-1.382;2023-02-01T08:56:13;14.52;;;5.68;;
22060;SDS011;11194;48.092;-1.382;2023-02-01T08:58:39;15.95;;;6.50;;
22060;SDS011;11194;48.092;-1.382;2023-02-01T09:01:06;17.50;;;6.60;;
22060;SDS011;11194;48.092;-1.382;2023-02-01T09:03:33;18.38;;;7.00;;
22060;SDS011;11194;48.092;-1.382;2023-02-01T09:05:59;17.52;;;6.60;;
22060;SDS011;11194;48.092;-1.382;2023-02-01T09:08:25;15.55;;;5.28;;
22060;SDS011;11194;48.092;-1.382;2023-02-01T09:10:51;19.17;;;6.05;;
22060;SDS011;11194;48.092;-1.382;2023-02-01T09:13:18;19.65;;;5.68;;
22060;SDS011;11194;48.092;-1.382;2023-02-01T09:15:44;17.25;;;5.43;;
22060;SDS011;11194;48.092;-1.382;2023-02-01T09:18:10;15.52;;;5.97;;
22060;SDS011;11194;48.092;-1.382;2023-02-01T09:20:37;15.50;;;6.30;;
22060;SDS011;11194;48.092;-1.382;2023-02-01T09:23:06;16.35;;;6.05;;
22060;SDS011;11194;48.092;-1.382;2023-02-01T09:25:33;12.15;;;5.63;;
22060;SDS011;11194;48.092;-1.382;2023-02-01T09:28:00;13.48;;;5.05;;
22060;SDS011;11194;48.092;-1.382;2023-02-01T09:30:26;15.45;;;5.13;;
22060;SDS011;11194;48.092;-1.382;2023-02-01T09:32:52;15.82;;;5.45;;
22060;SDS011;11194;48.092;-1.382;2023-02-01T09:35:18;12.18;;;5.40;;
22060;SDS011;11194;48.092;-1.382;2023-02-01T09:37:44;17.17;;;5.57;;
22060;SDS011;11194;48.092;-1.382;2023-02-01T09:40:12;14.00;;;5.00;;
22060;SDS011;11194;48.092;-1.382;2023-02-01T09:45:41;18.98;;;5.05;;
22060;SDS011;11194;48.092;-1.382;2023-02-01T09:48:13;9.45;;;4.45;;
22060;SDS011;11194;48.092;-1.382;2023-02-01T09:50:41;14.63;;;4.20;;
22060;SDS011;11194;48.092;-1.382;2023-02-01T09:53:12;15.63;;;4.97;;
22060;SDS011;11194;48.092;-1.382;2023-02-01T09:55:41;16.52;;;4.32;;
22060;SDS011;11194;48.092;-1.382;2023-02-01T09:58:12;15.25;;;3.97;;
22060;SDS011;11194;48.092;-1.382;2023-02-01T10:00:49;17.33;;;4.82;;
22060;SDS011;11194;48.092;-1.382;2023-02-01T10:03:16;13.68;;;4.30;;
22060;SDS011;11194;48.092;-1.382;2023-02-01T10:08:25;19.35;;;4.90;;
22060;SDS011;11194;48.092;-1.382;2023-02-01T10:10:55;10.45;;;3.90;;
22060;SDS011;11194;48.092;-1.382;2023-02-01T10:28:33;11.65;;;4.57;;
22060;SDS011;11194;48.092;-1.382;2023-02-01T10:31:00;13.93;;;4.65;;
22060;SDS011;11194;48.092;-1.382;2023-02-01T10:33:31;21.50;;;5.20;;
22060;SDS011;11194;48.092;-1.382;2023-02-01T10:38:33;20.90;;;4.82;;
22060;SDS011;11194;48.092;-1.382;2023-02-01T10:41:03;17.08;;;5.13;;
22060;SDS011;11194;48.092;-1.382;2023-02-01T10:43:33;12.13;;;4.53;;
22060;SDS011;11194;48.092;-1.382;2023-02-01T10:45:59;13.73;;;4.47;;
22060;SDS011;11194;48.092;-1.382;2023-02-01T10:48:26;13.48;;;4.35;;
22060;SDS011;11194;48.092;-1.382;2023-02-01T10:50:53;15.50;;;4.85;;
22060;SDS011;11194;48.092;-1.382;2023-02-01T10:53:24;12.10;;;4.38;;
22060;SDS011;11194;48.092;-1.382;2023-02-01T10:55:52;16.63;;;4.78;;
22060;SDS011;11194;48.092;-1.382;2023-02-01T10:58:19;16.42;;;4.18;;
22060;SDS011;11194;48.092;-1.382;2023-02-01T11:00:57;10.90;;;4.38;;
22060;SDS011;11194;48.092;-1.382;2023-02-01T11:05:55;13.32;;;4.30;;
22060;SDS011;11194;48.092;-1.382;2023-02-01T11:08:22;22.40;;;4.65;;
22060;SDS011;11194;48.092;-1.382;2023-02-01T11:10:49;13.95;;;4.35;;
22060;SDS011;11194;48.092;-1.382;2023-02-01T11:13:22;12.50;;;3.97;;
22060;SDS011;11194;48.092;-1.382;2023-02-01T11:15:56;15.10;;;3.45;;
22060;SDS011;11194;48.092;-1.382;2023-02-01T11:18:30;12.75;;;3.35;;
22060;SDS011;11194;48.092;-1.382;2023-02-01T11:20:56;8.88;;;3.20;;
22060;SDS011;11194;48.092;-1.382;2023-02-01T11:23:23;13.32;;;3.53;;
22060;SDS011;11194;48.092;-1.382;2023-02-01T11:25:51;9.60;;;3.28;;
22060;SDS011;11194;48.092;-1.382;2023-02-01T11:28:17;14.88;;;3.80;;
22060;SDS011;11194;48.092;-1.382;2023-02-01T11:30:44;10.35;;;3.35;;
22060;SDS011;11194;48.092;-1.382;2023-02-01T11:33:15;11.43;;;3.83;;
22060;SDS011;11194;48.092;-1.382;2023-02-01T11:35:42;13.63;;;3.53;;
22060;SDS011;11194;48.092;-1.382;2023-02-01T11:38:22;14.35;;;3.58;;
22060;SDS011;11194;48.092;-1.382;2023-02-01T11:40:50;12.65;;;3.30;;
22060;SDS011;11194;48.092;-1.382;2023-02-01T11:45:53;12.35;;;3.58;;
22060;SDS011;11194;48.092;-1.382;2023-02-01T11:48:19;11.00;;;3.92;;
22060;SDS011;11194;48.092;-1.382;2023-02-01T11:56:20;10.15;;;2.90;;
22060;SDS011;11194;48.092;-1.382;2023-02-01T12:06:45;12.93;;;3.40;;
22060;SDS011;11194;48.092;-1.382;2023-02-01T12:09:34;15.20;;;3.70;;
22060;SDS011;11194;48.092;-1.382;2023-02-01T12:12:11;15.52;;;3.05;;
22060;SDS011;11194;48.092;-1.382;2023-02-01T12:25:12;9.35;;;3.53;;
22060;SDS011;11194;48.092;-1.382;2023-02-01T12:27:46;8.20;;;2.95;;
22060;SDS011;11194;48.092;-1.382;2023-02-01T12:33:12;13.98;;;3.50;;
22060;SDS011;11194;48.092;-1.382;2023-02-01T12:44:02;8.88;;;2.75;;
22060;SDS011;11194;48.092;-1.382;2023-02-01T12:46:37;13.35;;;3.20;;
22060;SDS011;11194;48.092;-1.382;2023-02-01T12:49:17;8.80;;;2.97;;
22060;SDS011;11194;48.092;-1.382;2023-02-01T12:52:13;9.30;;;2.78;;
22060;SDS011;11194;48.092;-1.382;2023-02-01T12:55:01;8.13;;;2.42;;
22060;SDS011;11194;48.092;-1.382;2023-02-01T12:57:33;9.48;;;2.83;;
22060;SDS011;11194;48.092;-1.382;2023-02-01T13:00:05;10.77;;;3.22;;
22060;SDS011;11194;48.092;-1.382;2023-02-01T13:05:17;12.68;;;2.97;;
22060;SDS011;11194;48.092;-1.382;2023-02-01T13:08:03;13.48;;;3.15;;
22060;SDS011;11194;48.092;-1.382;2023-02-01T13:15:29;8.73;;;3.00;;
22060;SDS011;11194;48.092;-1.382;2023-02-01T13:17:57;13.93;;;3.35;;
22060;SDS011;11194;48.092;-1.382;2023-02-01T13:20:35;12.85;;;3.55;;
22060;SDS011;11194;48.092;-1.382;2023-02-01T13:23:04;8.57;;;2.83;;
22060;SDS011;11194;48.092;-1.382;2023-02-01T13:25:47;11.65;;;3.30;;
22060;SDS011;11194;48.092;-1.382;2023-02-01T13:28:32;11.82;;;3.40;;
22060;SDS011;11194;48.092;-1.382;2023-02-01T13:34:01;9.85;;;3.13;;
22060;SDS011;11194;48.092;-1.382;2023-02-01T13:39:04;10.98;;;3.50;;
22060;SDS011;11194;48.092;-1.382;2023-02-01T13:44:12;13.48;;;3.50;;
22060;SDS011;11194;48.092;-1.382;2023-02-01T13:46:41;14.15;;;3.50;;
22060;SDS011;11194;48.092;-1.382;2023-02-01T13:49:15;15.82;;;3.80;;
22060;SDS011;11194;48.092;-1.382;2023-02-01T13:51:44;12.32;;;3.50;;
22060;SDS011;11194;48.092;-1.382;2023-02-01T13:56:56;11.00;;;3.08;;
22060;SDS011;11194;48.092;-1.382;2023-02-01T14:04:50;11.20;;;3.47;;
22060;SDS011;11194;48.092;-1.382;2023-02-01T14:07:18;9.93;;;3.30;;
22060;SDS011;11194;48.092;-1.382;2023-02-01T14:09:44;10.35;;;3.10;;
22060;SDS011;11194;48.092;-1.382;2023-02-01T14:15:16;12.68;;;3.28;;
22060;SDS011;11194;48.092;-1.382;2023-02-01T14:17:42;13.48;;;4.25;;
22060;SDS011;11194;48.092;-1.382;2023-02-01T14:23:00;14.25;;;3.13;;
22060;SDS011;11194;48.092;-1.382;2023-02-01T14:25:31;15.88;;;3.78;;
22060;SDS011;11194;48.092;-1.382;2023-02-01T14:27:58;10.48;;;3.53;;
22060;SDS011;11194;48.092;-1.382;2023-02-01T14:30:24;12.20;;;3.30;;
22060;SDS011;11194;48.092;-1.382;2023-02-01T14:32:50;11.35;;;3.38;;
22060;SDS011;11194;48.092;-1.382;2023-02-01T14:35:20;16.88;;;4.22;;
22060;SDS011;11194;48.092;-1.382;2023-02-01T14:37:47;8.43;;;3.55;;
22060;SDS011;11194;48.092;-1.382;2023-02-01T14:40:19;13.88;;;3.92;;
22060;SDS011;11194;48.092;-1.382;2023-02-01T14:42:48;11.15;;;3.85;;
22060;SDS011;11194;48.092;-1.382;2023-02-01T14:50:18;14.82;;;4.25;;
22060;SDS011;11194;48.092;-1.382;2023-02-01T14:52:49;18.10;;;4.40;;
22060;SDS011;11194;48.092;-1.382;2023-02-01T14:55:17;16.42;;;4.63;;
22060;SDS011;11194;48.092;-1.382;2023-02-01T14:57:45;11.32;;;4.13;;
22060;SDS011;11194;48.092;-1.382;2023-02-01T15:00:23;8.27;;;3.47;;
22060;SDS011;11194;48.092;-1.382;2023-02-01T15:02:50;11.80;;;4.53;;
22060;SDS011;11194;48.092;-1.382;2023-02-01T15:05:22;16.40;;;4.63;;
22060;SDS011;11194;48.092;-1.382;2023-02-01T15:07:49;13.73;;;3.88;;
22060;SDS011;11194;48.092;-1.382;2023-02-01T15:10:16;19.33;;;4.93;;
22060;SDS011;11194;48.092;-1.382;2023-02-01T15:12:45;11.18;;;4.10;;
22060;SDS011;11194;48.092;-1.382;2023-02-01T15:15:14;13.75;;;4.38;;
22060;SDS011;11194;48.092;-1.382;2023-02-01T15:17:48;13.13;;;4.22;;
22060;SDS011;11194;48.092;-1.382;2023-02-01T15:20:16;17.42;;;4.70;;
22060;SDS011;11194;48.092;-1.382;2023-02-01T15:22:42;15.48;;;4.38;;
22060;SDS011;11194;48.092;-1.382;2023-02-01T15:25:18;15.10;;;4.70;;
22060;SDS011;11194;48.092;-1.382;2023-02-01T15:27:45;17.75;;;4.82;;
22060;SDS011;11194;48.092;-1.382;2023-02-01T15:30:18;16.52;;;5.32;;
22060;SDS011;11194;48.092;-1.382;2023-02-01T15:32:45;16.65;;;5.57;;
22060;SDS011;11194;48.092;-1.382;2023-02-01T15:35:33;18.40;;;5.00;;
22060;SDS011;11194;48.092;-1.382;2023-02-01T15:41:20;12.75;;;4.93;;
22060;SDS011;11194;48.092;-1.382;2023-02-01T15:46:09;19.65;;;5.40;;
22060;SDS011;11194;48.092;-1.382;2023-02-01T15:48:40;17.13;;;8.75;;
22060;SDS011;11194;48.092;-1.382;2023-02-01T15:51:11;12.82;;;6.43;;
22060;SDS011;11194;48.092;-1.382;2023-02-01T15:53:38;22.25;;;9.75;;
22060;SDS011;11194;48.092;-1.382;2023-02-01T15:56:04;14.40;;;4.97;;
22060;SDS011;11194;48.092;-1.382;2023-02-01T15:58:30;11.75;;;4.90;;
22060;SDS011;11194;48.092;-1.382;2023-02-01T16:01:01;12.55;;;6.05;;
22060;SDS011;11194;48.092;-1.382;2023-02-01T16:03:34;28.50;;;10.95;;
22060;SDS011;11194;48.092;-1.382;2023-02-01T16:06:01;21.45;;;7.13;;
22060;SDS011;11194;48.092;-1.382;2023-02-01T16:08:28;32.47;;;13.35;;
22060;SDS011;11194;48.092;-1.382;2023-02-01T16:10:59;15.38;;;5.25;;
22060;SDS011;11194;48.092;-1.382;2023-02-01T16:13:27;15.65;;;7.22;;
22060;SDS011;11194;48.092;-1.382;2023-02-01T16:15:53;28.73;;;12.20;;
22060;SDS011;11194;48.092;-1.382;2023-02-01T16:18:19;23.52;;;9.73;;
22060;SDS011;11194;48.092;-1.382;2023-02-01T16:20:45;19.95;;;8.30;;
22060;SDS011;11194;48.092;-1.382;2023-02-01T16:23:13;14.95;;;4.75;;
22060;SDS011;11194;48.092;-1.382;2023-02-01T16:25:39;22.35;;;8.85;;
22060;SDS011;11194;48.092;-1.382;2023-02-01T16:28:05;14.73;;;5.20;;
22060;SDS011;11194;48.092;-1.382;2023-02-01T16:30:33;15.95;;;5.90;;
22060;SDS011;11194;48.092;-1.382;2023-02-01T16:32:59;21.65;;;12.30;;
22060;SDS011;11194;48.092;-1.382;2023-02-01T16:35:37;26.45;;;12.02;;
22060;SDS011;11194;48.092;-1.382;2023-02-01T16:38:04;23.40;;;8.52;;
22060;SDS011;11194;48.092;-1.382;2023-02-01T16:40:37;29.98;;;16.38;;
22060;SDS011;11194;48.092;-1.382;2023-02-01T16:43:05;14.10;;;5.68;;
22060;SDS011;11194;48.092;-1.382;2023-02-01T16:45:37;14.95;;;5.68;;
22060;SDS011;11194;48.092;-1.382;2023-02-01T16:48:05;17.98;;;7.38;;
22060;SDS011;11194;48.092;-1.382;2023-02-01T16:50:31;20.02;;;6.97;;
22060;SDS011;11194;48.092;-1.382;2023-02-01T16:52:57;16.67;;;6.45;;
22060;SDS011;11194;48.092;-1.382;2023-02-01T16:55:24;16.30;;;6.93;;
22060;SDS011;11194;48.092;-1.382;2023-02-01T16:57:51;25.92;;;12.27;;
22060;SDS011;11194;48.092;-1.382;2023-02-01T17:00:17;21.73;;;6.60;;
22060;SDS011;11194;48.092;-1.382;2023-02-01T17:02:45;18.10;;;7.15;;
22060;SDS011;11194;48.092;-1.382;2023-02-01T17:05:11;16.88;;;6.50;;
22060;SDS011;11194;48.092;-1.382;2023-02-01T17:07:37;13.52;;;6.20;;
22060;SDS011;11194;48.092;-1.382;2023-02-01T17:10:04;15.32;;;6.30;;
22060;SDS011;11194;48.092;-1.382;2023-02-01T17:12:31;13.85;;;6.20;;
22060;SDS011;11194;48.092;-1.382;2023-02-01T17:14:58;12.75;;;6.28;;
22060;SDS011;11194;48.092;-1.382;2023-02-01T17:17:30;18.10;;;7.35;;
22060;SDS011;11194;48.092;-1.382;2023-02-01T17:19:58;17.48;;;6.93;;
22060;SDS011;11194;48.092;-1.382;2023-02-01T17:22:24;18.23;;;6.43;;
22060;SDS011;11194;48.092;-1.382;2023-02-01T17:24:50;14.85;;;7.30;;
22060;SDS011;11194;48.092;-1.382;2023-02-01T17:27:16;19.25;;;6.93;;
22060;SDS011;11194;48.092;-1.382;2023-02-01T17:29:43;21.38;;;7.97;;
22060;SDS011;11194;48.092;-1.382;2023-02-01T17:32:17;29.10;;;14.65;;
22060;SDS011;11194;48.092;-1.382;2023-02-01T17:34:44;23.77;;;11.35;;
22060;SDS011;11194;48.092;-1.382;2023-02-01T17:37:18;23.60;;;10.88;;
22060;SDS011;11194;48.092;-1.382;2023-02-01T17:39:47;19.23;;;8.30;;
22060;SDS011;11194;48.092;-1.382;2023-02-01T17:42:19;21.80;;;10.15;;
22060;SDS011;11194;48.092;-1.382;2023-02-01T17:44:45;20.83;;;7.80;;
22060;SDS011;11194;48.092;-1.382;2023-02-01T17:47:11;20.30;;;9.45;;
22060;SDS011;11194;48.092;-1.382;2023-02-01T17:49:37;26.52;;;11.32;;
22060;SDS011;11194;48.092;-1.382;2023-02-01T17:52:04;22.42;;;14.85;;
22060;SDS011;11194;48.092;-1.382;2023-02-01T17:54:30;15.88;;;7.40;;
22060;SDS011;11194;48.092;-1.382;2023-02-01T17:56:56;16.00;;;8.45;;
22060;SDS011;11194;48.092;-1.382;2023-02-01T17:59:27;14.85;;;7.45;;
22060;SDS011;11194;48.092;-1.382;2023-02-01T18:01:53;16.63;;;7.55;;
22060;SDS011;11194;48.092;-1.382;2023-02-01T18:04:24;17.45;;;8.43;;
22060;SDS011;11194;48.092;-1.382;2023-02-01T18:06:50;15.57;;;9.20;;
22060;SDS011;11194;48.092;-1.382;2023-02-01T18:09:16;16.98;;;9.60;;
22060;SDS011;11194;48.092;-1.382;2023-02-01T18:11:43;18.10;;;9.05;;
22060;SDS011;11194;48.092;-1.382;2023-02-01T18:14:10;19.05;;;11.00;;
22060;SDS011;11194;48.092;-1.382;2023-02-01T18:16:37;17.70;;;11.07;;
22060;SDS011;11194;48.092;-1.382;2023-02-01T18:19:03;19.63;;;10.20;;
22060;SDS011;11194;48.092;-1.382;2023-02-01T18:21:42;19.88;;;10.75;;
22060;SDS011;11194;48.092;-1.382;2023-02-01T18:24:12;19.67;;;10.52;;
22060;SDS011;11194;48.092;-1.382;2023-02-01T18:26:38;21.58;;;10.57;;
22060;SDS011;11194;48.092;-1.382;2023-02-01T18:29:05;25.42;;;13.80;;
22060;SDS011;11194;48.092;-1.382;2023-02-01T18:31:31;30.80;;;14.93;;
22060;SDS011;11194;48.092;-1.382;2023-02-01T18:33:58;23.85;;;12.65;;
22060;SDS011;11194;48.092;-1.382;2023-02-01T18:36:24;25.60;;;12.43;;
22060;SDS011;11194;48.092;-1.382;2023-02-01T18:38:51;31.75;;;18.98;;
22060;SDS011;11194;48.092;-1.382;2023-02-01T18:41:20;14.38;;;8.77;;
22060;SDS011;11194;48.092;-1.382;2023-02-01T18:43:47;29.70;;;14.60;;
22060;SDS011;11194;48.092;-1.382;2023-02-01T18:46:13;29.60;;;11.60;;
22060;SDS011;11194;48.092;-1.382;2023-02-01T18:48:40;25.55;;;15.65;;
22060;SDS011;11194;48.092;-1.382;2023-02-01T18:51:08;29.25;;;12.68;;
22060;SDS011;11194;48.092;-1.382;2023-02-01T18:53:35;34.33;;;13.85;;
22060;SDS011;11194;48.092;-1.382;2023-02-01T18:56:01;40.17;;;15.77;;